sensor_id;sensor_type;location;lat;lon;timestamp;P1;durP1;ratioP1;P2;durP2;ratioP2
80123;SDS011;69433;48.642;9.142;2024-03-23T00:56:08;21.48;;;13.57;;
80123;SDS011;69433;48.642;9.142;2024-03-23T00:58:33;22.48;;;13.35;;
80123;SDS011;69433;48.642;9.142;2024-03-23T01:00:58;23.73;;;14.43;;
80123;SDS011;69433;48.642;9.142;2024-03-23T01:03:24;20.17;;;13.25;;
80123;SDS011;69433;48.642;9.142;2024-03-23T01:05:49;22.90;;;14.23;;
80123;SDS011;69433;48.642;9.142;2024-03-23T01:08:14;21.20;;;13.55;;
80123;SDS011;69433;48.642;9.142;2024-03-23T01:10:40;22.27;;;13.40;;
80123;SDS011;69433;48.642;9.142;2024-03-23T01:13:05;20.20;;;13.68;;
80123;SDS011;69433;48.642;9.142;2024-03-23T01:15:30;20.02;;;13.07;;
80123;SDS011;69433;48.642;9.142;2024-03-23T01:17:55;19.42;;;12.95;;
80123;SDS011;69433;48.642;9.142;2024-03-23T01:20:21;20.05;;;13.32;;
80123;SDS011;69433;48.642;9.142;2024-03-23T01:22:46;21.20;;;12.95;;
80123;SDS011;69433;48.642;9.142;2024-03-23T01:25:11;20.80;;;12.98;;
80123;SDS011;69433;48.642;9.142;2024-03-23T01:27:45;18.55;;;12.20;;
80123;SDS011;69433;48.642;9.142;2024-03-23T01:30:10;17.88;;;12.82;;
80123;SDS011;69433;48.642;9.142;2024-03-23T01:32:36;18.05;;;12.50;;
80123;SDS011;69433;48.642;9.142;2024-03-23T01:35:01;18.63;;;12.55;;
80123;SDS011;69433;48.642;9.142;2024-03-23T01:37:29;19.30;;;13.15;;
80123;SDS011;69433;48.642;9.142;2024-03-23T01:42:57;20.77;;;13.48;;
80123;SDS011;69433;48.642;9.142;2024-03-23T01:45:23;18.58;;;12.48;;
80123;SDS011;69433;48.642;9.142;2024-03-23T01:47:49;17.70;;;11.90;;
80123;SDS011;69433;48.642;9.142;2024-03-23T01:50:15;16.80;;;11.73;;
80123;SDS011;69433;48.642;9.142;2024-03-23T01:52:41;19.15;;;12.98;;
80123;SDS011;69433;48.642;9.142;2024-03-23T01:55:07;17.63;;;11.88;;
80123;SDS011;69433;48.642;9.142;2024-03-23T01:57:32;16.67;;;11.18;;
80123;SDS011;69433;48.642;9.142;2024-03-23T02:00:04;20.17;;;12.80;;
80123;SDS011;69433;48.642;9.142;2024-03-23T02:02:31;19.75;;;12.55;;
80123;SDS011;69433;48.642;9.142;2024-03-23T02:04:56;18.27;;;12.02;;
80123;SDS011;69433;48.642;9.142;2024-03-23T02:07:21;18.02;;;11.73;;
80123;SDS011;69433;48.642;9.142;2024-03-23T02:09:48;18.38;;;12.20;;
80123;SDS011;69433;48.642;9.142;2024-03-23T02:12:14;17.80;;;11.68;;
80123;SDS011;69433;48.642;9.142;2024-03-23T02:14:40;16.67;;;11.38;;
80123;SDS011;69433;48.642;9.142;2024-03-23T02:17:22;16.65;;;11.13;;
80123;SDS011;69433;48.642;9.142;2024-03-23T02:19:47;16.77;;;11.35;;
80123;SDS011;69433;48.642;9.142;2024-03-23T02:22:12;19.08;;;11.57;;
80123;SDS011;69433;48.642;9.142;2024-03-23T02:24:38;17.08;;;11.15;;
80123;SDS011;69433;48.642;9.142;2024-03-23T02:27:05;17.38;;;10.98;;
80123;SDS011;69433;48.642;9.142;2024-03-23T02:29:31;17.35;;;11.20;;
80123;SDS011;69433;48.642;9.142;2024-03-23T02:32:17;14.90;;;10.43;;
80123;SDS011;69433;48.642;9.142;2024-03-23T02:34:42;16.42;;;11.10;;
80123;SDS011;69433;48.642;9.142;2024-03-23T02:37:11;17.90;;;11.55;;
80123;SDS011;69433;48.642;9.142;2024-03-23T02:39:37;16.55;;;11.32;;
80123;SDS011;69433;48.642;9.142;2024-03-23T02:42:02;15.77;;;10.68;;
80123;SDS011;69433;48.642;9.142;2024-03-23T02:44:27;16.75;;;10.48;;
80123;SDS011;69433;48.642;9.142;2024-03-23T02:49:38;16.45;;;11.30;;
80123;SDS011;69433;48.642;9.142;2024-03-23T02:52:04;17.40;;;11.15;;
80123;SDS011;69433;48.642;9.142;2024-03-23T02:54:29;15.27;;;10.38;;
80123;SDS011;69433;48.642;9.142;2024-03-23T02:56:54;14.70;;;9.98;;
80123;SDS011;69433;48.642;9.142;2024-03-23T02:59:20;16.05;;;9.32;;
80123;SDS011;69433;48.642;9.142;2024-03-23T03:01:45;15.38;;;10.25;;
80123;SDS011;69433;48.642;9.142;2024-03-23T03:04:10;13.88;;;10.43;;
80123;SDS011;69433;48.642;9.142;2024-03-23T03:06:41;16.70;;;10.32;;
80123;SDS011;69433;48.642;9.142;2024-03-23T03:11:31;16.17;;;9.93;;
80123;SDS011;69433;48.642;9.142;2024-03-23T03:13:56;14.07;;;9.57;;
80123;SDS011;69433;48.642;9.142;2024-03-23T03:16:22;14.90;;;10.02;;
80123;SDS011;69433;48.642;9.142;2024-03-23T03:18:47;14.90;;;9.38;;
80123;SDS011;69433;48.642;9.142;2024-03-23T03:21:12;15.10;;;9.70;;
80123;SDS011;69433;48.642;9.142;2024-03-23T03:23:38;16.08;;;11.05;;
80123;SDS011;69433;48.642;9.142;2024-03-23T03:26:04;14.93;;;9.85;;
80123;SDS011;69433;48.642;9.142;2024-03-23T03:28:30;12.73;;;9.00;;
80123;SDS011;69433;48.642;9.142;2024-03-23T03:30:57;15.13;;;9.80;;
80123;SDS011;69433;48.642;9.142;2024-03-23T03:33:23;15.05;;;9.63;;
80123;SDS011;69433;48.642;9.142;2024-03-23T03:35:48;16.45;;;10.20;;
80123;SDS011;69433;48.642;9.142;2024-03-23T03:38:14;14.35;;;9.40;;
80123;SDS011;69433;48.642;9.142;2024-03-23T03:40:39;14.35;;;9.68;;
80123;SDS011;69433;48.642;9.142;2024-03-23T03:43:04;12.63;;;8.98;;
80123;SDS011;69433;48.642;9.142;2024-03-23T03:45:30;13.95;;;9.65;;
80123;SDS011;69433;48.642;9.142;2024-03-23T03:47:55;13.80;;;9.40;;
80123;SDS011;69433;48.642;9.142;2024-03-23T03:50:21;13.90;;;9.82;;
80123;SDS011;69433;48.642;9.142;2024-03-23T03:52:50;14.35;;;9.25;;
80123;SDS011;69433;48.642;9.142;2024-03-23T03:55:15;13.50;;;9.38;;
80123;SDS011;69433;48.642;9.142;2024-03-23T03:57:41;12.45;;;8.95;;
80123;SDS011;69433;48.642;9.142;2024-03-23T04:00:06;13.95;;;8.88;;
80123;SDS011;69433;48.642;9.142;2024-03-23T04:02:34;13.73;;;9.25;;
80123;SDS011;69433;48.642;9.142;2024-03-23T04:04:59;13.60;;;9.82;;
80123;SDS011;69433;48.642;9.142;2024-03-23T04:07:24;13.95;;;9.07;;
80123;SDS011;69433;48.642;9.142;2024-03-23T04:09:50;12.75;;;9.15;;
80123;SDS011;69433;48.642;9.142;2024-03-23T04:12:15;12.88;;;8.85;;
80123;SDS011;69433;48.642;9.142;2024-03-23T04:14:40;11.80;;;8.05;;
80123;SDS011;69433;48.642;9.142;2024-03-23T04:17:06;13.82;;;9.00;;
80123;SDS011;69433;48.642;9.142;2024-03-23T04:19:31;12.63;;;8.65;;
80123;SDS011;69433;48.642;9.142;2024-03-23T04:21:56;13.30;;;8.55;;
80123;SDS011;69433;48.642;9.142;2024-03-23T04:24:22;12.15;;;7.93;;
80123;SDS011;69433;48.642;9.142;2024-03-23T04:26:47;11.55;;;7.82;;
80123;SDS011;69433;48.642;9.142;2024-03-23T04:29:13;11.10;;;7.53;;
80123;SDS011;69433;48.642;9.142;2024-03-23T04:31:38;11.13;;;8.48;;
80123;SDS011;69433;48.642;9.142;2024-03-23T04:34:04;12.38;;;7.22;;
80123;SDS011;69433;48.642;9.142;2024-03-23T04:39:26;12.00;;;7.47;;
80123;SDS011;69433;48.642;9.142;2024-03-23T04:41:52;10.27;;;6.65;;
80123;SDS011;69433;48.642;9.142;2024-03-23T04:44:17;8.50;;;6.07;;
80123;SDS011;69433;48.642;9.142;2024-03-23T04:46:42;8.25;;;5.70;;
80123;SDS011;69433;48.642;9.142;2024-03-23T04:49:10;9.18;;;5.80;;
80123;SDS011;69433;48.642;9.142;2024-03-23T04:51:35;8.73;;;5.82;;
80123;SDS011;69433;48.642;9.142;2024-03-23T04:54:04;7.57;;;5.15;;
80123;SDS011;69433;48.642;9.142;2024-03-23T04:56:30;7.15;;;5.00;;
80123;SDS011;69433;48.642;9.142;2024-03-23T04:58:56;7.80;;;5.13;;
80123;SDS011;69433;48.642;9.142;2024-03-23T05:01:26;6.45;;;5.10;;
80123;SDS011;69433;48.642;9.142;2024-03-23T05:03:51;6.80;;;4.82;;
80123;SDS011;69433;48.642;9.142;2024-03-23T05:06:17;9.77;;;5.57;;
80123;SDS011;69433;48.642;9.142;2024-03-23T05:08:43;6.85;;;5.10;;
80123;SDS011;69433;48.642;9.142;2024-03-23T05:11:08;8.50;;;5.10;;
80123;SDS011;69433;48.642;9.142;2024-03-23T05:13:34;10.02;;;5.35;;
80123;SDS011;69433;48.642;9.142;2024-03-23T05:15:59;7.82;;;5.45;;
80123;SDS011;69433;48.642;9.142;2024-03-23T05:18:24;9.02;;;5.50;;
80123;SDS011;69433;48.642;9.142;2024-03-23T05:23:56;7.65;;;5.30;;
80123;SDS011;69433;48.642;9.142;2024-03-23T05:26:22;7.78;;;4.90;;
80123;SDS011;69433;48.642;9.142;2024-03-23T05:28:48;8.70;;;5.55;;
80123;SDS011;69433;48.642;9.142;2024-03-23T05:31:22;7.80;;;5.35;;
80123;SDS011;69433;48.642;9.142;2024-03-23T05:33:48;7.80;;;5.13;;
80123;SDS011;69433;48.642;9.142;2024-03-23T05:36:13;7.10;;;5.30;;
80123;SDS011;69433;48.642;9.142;2024-03-23T05:38:38;7.75;;;5.00;;
80123;SDS011;69433;48.642;9.142;2024-03-23T05:41:03;7.13;;;5.05;;
80123;SDS011;69433;48.642;9.142;2024-03-23T05:43:29;6.30;;;4.65;;
80123;SDS011;69433;48.642;9.142;2024-03-23T05:48:20;7.45;;;4.80;;
80123;SDS011;69433;48.642;9.142;2024-03-23T05:50:46;6.00;;;4.50;;
80123;SDS011;69433;48.642;9.142;2024-03-23T05:53:11;7.90;;;4.80;;
80123;SDS011;69433;48.642;9.142;2024-03-23T05:55:38;6.60;;;4.90;;
80123;SDS011;69433;48.642;9.142;2024-03-23T05:58:03;7.05;;;5.20;;
80123;SDS011;69433;48.642;9.142;2024-03-23T06:00:28;7.63;;;4.82;;
80123;SDS011;69433;48.642;9.142;2024-03-23T06:02:54;6.45;;;4.53;;
80123;SDS011;69433;48.642;9.142;2024-03-23T06:05:26;6.63;;;4.43;;
80123;SDS011;69433;48.642;9.142;2024-03-23T06:07:52;6.03;;;4.35;;
80123;SDS011;69433;48.642;9.142;2024-03-23T06:10:17;7.85;;;4.78;;
80123;SDS011;69433;48.642;9.142;2024-03-23T06:12:42;6.97;;;4.50;;
80123;SDS011;69433;48.642;9.142;2024-03-23T06:15:08;6.80;;;4.75;;
80123;SDS011;69433;48.642;9.142;2024-03-23T06:17:38;6.10;;;4.35;;
80123;SDS011;69433;48.642;9.142;2024-03-23T06:20:19;7.75;;;4.70;;
80123;SDS011;69433;48.642;9.142;2024-03-23T06:22:44;6.22;;;4.25;;
80123;SDS011;69433;48.642;9.142;2024-03-23T06:25:09;7.53;;;4.70;;
80123;SDS011;69433;48.642;9.142;2024-03-23T06:27:34;7.47;;;4.55;;
80123;SDS011;69433;48.642;9.142;2024-03-23T06:30:00;6.57;;;4.47;;
80123;SDS011;69433;48.642;9.142;2024-03-23T06:32:25;6.35;;;4.53;;
80123;SDS011;69433;48.642;9.142;2024-03-23T06:35:07;5.60;;;4.05;;
80123;SDS011;69433;48.642;9.142;2024-03-23T06:37:35;6.45;;;4.22;;
80123;SDS011;69433;48.642;9.142;2024-03-23T06:40:00;6.30;;;4.22;;
80123;SDS011;69433;48.642;9.142;2024-03-23T06:42:26;6.65;;;4.00;;
80123;SDS011;69433;48.642;9.142;2024-03-23T06:44:51;8.25;;;4.53;;
80123;SDS011;69433;48.642;9.142;2024-03-23T06:47:16;7.88;;;4.30;;
80123;SDS011;69433;48.642;9.142;2024-03-23T06:49:42;7.85;;;4.13;;
80123;SDS011;69433;48.642;9.142;2024-03-23T06:52:15;5.85;;;4.10;;
80123;SDS011;69433;48.642;9.142;2024-03-23T06:54:40;6.60;;;4.05;;
80123;SDS011;69433;48.642;9.142;2024-03-23T06:57:06;5.78;;;3.97;;
80123;SDS011;69433;48.642;9.142;2024-03-23T06:59:32;6.25;;;4.05;;
80123;SDS011;69433;48.642;9.142;2024-03-23T07:01:57;7.55;;;4.00;;
80123;SDS011;69433;48.642;9.142;2024-03-23T07:04:22;5.30;;;4.05;;
80123;SDS011;69433;48.642;9.142;2024-03-23T07:09:24;6.53;;;3.80;;
80123;SDS011;69433;48.642;9.142;2024-03-23T07:11:51;5.63;;;3.97;;
80123;SDS011;69433;48.642;9.142;2024-03-23T07:14:18;5.30;;;3.75;;
80123;SDS011;69433;48.642;9.142;2024-03-23T07:16:43;5.72;;;3.72;;
80123;SDS011;69433;48.642;9.142;2024-03-23T07:19:10;5.70;;;4.00;;
80123;SDS011;69433;48.642;9.142;2024-03-23T07:21:35;5.53;;;3.75;;
80123;SDS011;69433;48.642;9.142;2024-03-23T07:24:01;5.88;;;3.90;;
80123;SDS011;69433;48.642;9.142;2024-03-23T07:26:26;4.38;;;3.45;;
80123;SDS011;69433;48.642;9.142;2024-03-23T07:28:51;5.53;;;3.90;;
80123;SDS011;69433;48.642;9.142;2024-03-23T07:31:18;5.28;;;3.50;;
80123;SDS011;69433;48.642;9.142;2024-03-23T07:33:45;5.68;;;3.97;;
80123;SDS011;69433;48.642;9.142;2024-03-23T07:36:12;5.28;;;3.78;;
80123;SDS011;69433;48.642;9.142;2024-03-23T07:38:37;4.70;;;3.30;;
80123;SDS011;69433;48.642;9.142;2024-03-23T07:41:09;4.13;;;3.22;;
80123;SDS011;69433;48.642;9.142;2024-03-23T07:46:07;4.93;;;3.30;;
80123;SDS011;69433;48.642;9.142;2024-03-23T07:48:32;6.22;;;3.72;;
80123;SDS011;69433;48.642;9.142;2024-03-23T07:51:05;6.05;;;3.38;;
80123;SDS011;69433;48.642;9.142;2024-03-23T07:53:31;4.03;;;3.05;;
80123;SDS011;69433;48.642;9.142;2024-03-23T07:56:01;4.57;;;3.33;;
80123;SDS011;69433;48.642;9.142;2024-03-23T08:00:54;5.00;;;3.28;;
80123;SDS011;69433;48.642;9.142;2024-03-23T08:03:19;5.53;;;3.10;;
80123;SDS011;69433;48.642;9.142;2024-03-23T08:05:45;5.18;;;3.08;;
80123;SDS011;69433;48.642;9.142;2024-03-23T08:08:10;4.90;;;3.33;;
80123;SDS011;69433;48.642;9.142;2024-03-23T08:10:36;4.50;;;2.90;;
80123;SDS011;69433;48.642;9.142;2024-03-23T08:13:14;6.30;;;3.15;;
80123;SDS011;69433;48.642;9.142;2024-03-23T08:15:39;6.18;;;2.90;;
80123;SDS011;69433;48.642;9.142;2024-03-23T08:18:04;4.90;;;3.10;;
80123;SDS011;69433;48.642;9.142;2024-03-23T08:20:30;5.15;;;3.17;;
80123;SDS011;69433;48.642;9.142;2024-03-23T08:22:55;5.15;;;2.67;;
80123;SDS011;69433;48.642;9.142;2024-03-23T08:25:20;3.95;;;2.75;;
80123;SDS011;69433;48.642;9.142;2024-03-23T08:27:46;5.70;;;3.47;;
80123;SDS011;69433;48.642;9.142;2024-03-23T08:33:10;4.78;;;2.90;;
80123;SDS011;69433;48.642;9.142;2024-03-23T08:35:36;3.83;;;2.70;;
80123;SDS011;69433;48.642;9.142;2024-03-23T08:38:01;4.70;;;3.35;;
80123;SDS011;69433;48.642;9.142;2024-03-23T08:40:26;3.75;;;2.47;;
80123;SDS011;69433;48.642;9.142;2024-03-23T08:42:52;3.60;;;2.42;;
80123;SDS011;69433;48.642;9.142;2024-03-23T08:45:17;4.22;;;2.70;;
80123;SDS011;69433;48.642;9.142;2024-03-23T08:47:42;4.38;;;2.30;;
80123;SDS011;69433;48.642;9.142;2024-03-23T08:50:07;4.80;;;2.70;;
80123;SDS011;69433;48.642;9.142;2024-03-23T08:52:35;4.30;;;2.67;;
80123;SDS011;69433;48.642;9.142;2024-03-23T08:55:00;3.78;;;2.33;;
80123;SDS011;69433;48.642;9.142;2024-03-23T08:57:42;3.90;;;2.50;;
80123;SDS011;69433;48.642;9.142;2024-03-23T09:00:07;4.30;;;2.50;;
80123;SDS011;69433;48.642;9.142;2024-03-23T09:02:34;3.85;;;2.53;;
80123;SDS011;69433;48.642;9.142;2024-03-23T09:04:59;4.72;;;2.60;;
80123;SDS011;69433;48.642;9.142;2024-03-23T09:10:51;4.07;;;2.47;;
80123;SDS011;69433;48.642;9.142;2024-03-23T09:13:17;3.92;;;2.63;;
80123;SDS011;69433;48.642;9.142;2024-03-23T09:15:46;3.92;;;2.58;;
80123;SDS011;69433;48.642;9.142;2024-03-23T09:18:31;5.20;;;2.35;;
80123;SDS011;69433;48.642;9.142;2024-03-23T09:20:57;4.72;;;2.30;;
80123;SDS011;69433;48.642;9.142;2024-03-23T09:23:23;5.25;;;2.35;;
80123;SDS011;69433;48.642;9.142;2024-03-23T09:25:48;3.60;;;2.28;;
80123;SDS011;69433;48.642;9.142;2024-03-23T09:28:15;4.28;;;2.90;;
80123;SDS011;69433;48.642;9.142;2024-03-23T09:30:41;3.63;;;2.42;;
80123;SDS011;69433;48.642;9.142;2024-03-23T09:33:09;3.47;;;2.30;;
80123;SDS011;69433;48.642;9.142;2024-03-23T09:35:40;5.75;;;2.22;;
80123;SDS011;69433;48.642;9.142;2024-03-23T09:40:41;4.80;;;2.40;;
80123;SDS011;69433;48.642;9.142;2024-03-23T09:43:18;6.07;;;2.40;;
80123;SDS011;69433;48.642;9.142;2024-03-23T09:45:45;8.07;;;2.67;;
80123;SDS011;69433;48.642;9.142;2024-03-23T09:48:11;7.97;;;3.47;;
80123;SDS011;69433;48.642;9.142;2024-03-23T09:50:44;8.50;;;3.40;;
80123;SDS011;69433;48.642;9.142;2024-03-23T09:53:11;8.30;;;3.25;;
80123;SDS011;69433;48.642;9.142;2024-03-23T09:55:37;8.07;;;2.90;;
80123;SDS011;69433;48.642;9.142;2024-03-23T09:58:03;7.03;;;3.30;;
80123;SDS011;69433;48.642;9.142;2024-03-23T10:00:33;6.85;;;3.03;;
80123;SDS011;69433;48.642;9.142;2024-03-23T10:03:01;5.60;;;2.92;;
80123;SDS011;69433;48.642;9.142;2024-03-23T10:05:27;8.88;;;3.20;;
80123;SDS011;69433;48.642;9.142;2024-03-23T10:07:53;5.38;;;2.63;;
80123;SDS011;69433;48.642;9.142;2024-03-23T10:10:19;8.10;;;3.10;;
80123;SDS011;69433;48.642;9.142;2024-03-23T10:12:46;6.13;;;3.25;;
80123;SDS011;69433;48.642;9.142;2024-03-23T10:15:26;9.15;;;3.03;;
80123;SDS011;69433;48.642;9.142;2024-03-23T10:17:51;6.35;;;2.70;;
80123;SDS011;69433;48.642;9.142;2024-03-23T10:20:20;8.88;;;3.25;;
80123;SDS011;69433;48.642;9.142;2024-03-23T10:22:50;8.43;;;2.70;;
80123;SDS011;69433;48.642;9.142;2024-03-23T10:25:22;5.82;;;2.63;;
80123;SDS011;69433;48.642;9.142;2024-03-23T10:27:57;6.15;;;2.53;;
80123;SDS011;69433;48.642;9.142;2024-03-23T10:30:24;6.15;;;2.60;;
80123;SDS011;69433;48.642;9.142;2024-03-23T10:32:53;6.78;;;2.40;;
80123;SDS011;69433;48.642;9.142;2024-03-23T10:35:32;5.68;;;2.80;;
80123;SDS011;69433;48.642;9.142;2024-03-23T10:37:57;7.53;;;2.75;;
80123;SDS011;69433;48.642;9.142;2024-03-23T10:43:26;5.25;;;2.63;;
80123;SDS011;69433;48.642;9.142;2024-03-23T10:45:51;8.98;;;2.63;;
80123;SDS011;69433;48.642;9.142;2024-03-23T10:48:17;11.63;;;2.90;;
80123;SDS011;69433;48.642;9.142;2024-03-23T10:50:42;6.90;;;2.40;;
80123;SDS011;69433;48.642;9.142;2024-03-23T10:53:07;9.43;;;2.70;;
80123;SDS011;69433;48.642;9.142;2024-03-23T10:55:33;6.25;;;2.20;;
80123;SDS011;69433;48.642;9.142;2024-03-23T10:57:59;4.32;;;1.92;;
80123;SDS011;69433;48.642;9.142;2024-03-23T11:00:25;7.25;;;2.45;;
80123;SDS011;69433;48.642;9.142;2024-03-23T11:02:51;5.60;;;2.13;;
80123;SDS011;69433;48.642;9.142;2024-03-23T11:07:51;5.32;;;2.00;;
80123;SDS011;69433;48.642;9.142;2024-03-23T11:10:27;6.32;;;2.25;;
80123;SDS011;69433;48.642;9.142;2024-03-23T11:12:57;4.53;;;2.10;;
80123;SDS011;69433;48.642;9.142;2024-03-23T11:15:23;9.43;;;2.40;;
80123;SDS011;69433;48.642;9.142;2024-03-23T11:20:32;6.65;;;2.25;;
80123;SDS011;69433;48.642;9.142;2024-03-23T11:22:59;5.18;;;2.40;;
80123;SDS011;69433;48.642;9.142;2024-03-23T11:25:25;9.32;;;2.40;;
80123;SDS011;69433;48.642;9.142;2024-03-23T11:30:24;4.57;;;2.08;;
80123;SDS011;69433;48.642;9.142;2024-03-23T11:32:51;4.40;;;2.03;;
80123;SDS011;69433;48.642;9.142;2024-03-23T11:35:25;5.20;;;2.03;;
80123;SDS011;69433;48.642;9.142;2024-03-23T11:38:06;4.75;;;2.20;;
80123;SDS011;69433;48.642;9.142;2024-03-23T11:40:35;4.43;;;2.05;;
80123;SDS011;69433;48.642;9.142;2024-03-23T11:43:02;3.53;;;2.00;;
80123;SDS011;69433;48.642;9.142;2024-03-23T11:45:33;4.28;;;2.03;;
80123;SDS011;69433;48.642;9.142;2024-03-23T11:50:33;4.40;;;2.05;;
80123;SDS011;69433;48.642;9.142;2024-03-23T11:53:07;8.00;;;2.20;;
80123;SDS011;69433;48.642;9.142;2024-03-23T11:55:41;4.40;;;1.90;;
80123;SDS011;69433;48.642;9.142;2024-03-23T11:58:08;6.22;;;1.80;;
80123;SDS011;69433;48.642;9.142;2024-03-23T12:00:34;4.13;;;1.83;;
80123;SDS011;69433;48.642;9.142;2024-03-23T12:03:00;3.70;;;1.92;;
80123;SDS011;69433;48.642;9.142;2024-03-23T12:05:29;3.85;;;1.92;;
80123;SDS011;69433;48.642;9.142;2024-03-23T12:07:55;3.63;;;1.70;;
80123;SDS011;69433;48.642;9.142;2024-03-23T12:10:20;3.80;;;1.98;;
80123;SDS011;69433;48.642;9.142;2024-03-23T12:12:46;5.80;;;2.17;;
80123;SDS011;69433;48.642;9.142;2024-03-23T12:15:17;3.67;;;2.00;;
80123;SDS011;69433;48.642;9.142;2024-03-23T12:17:42;5.55;;;2.05;;
80123;SDS011;69433;48.642;9.142;2024-03-23T12:20:07;3.88;;;1.83;;
80123;SDS011;69433;48.642;9.142;2024-03-23T12:22:33;8.07;;;1.90;;
80123;SDS011;69433;48.642;9.142;2024-03-23T12:25:00;2.78;;;1.60;;
80123;SDS011;69433;48.642;9.142;2024-03-23T12:27:25;4.85;;;1.80;;
80123;SDS011;69433;48.642;9.142;2024-03-23T12:29:51;5.40;;;1.85;;
80123;SDS011;69433;48.642;9.142;2024-03-23T12:32:16;4.05;;;1.85;;
80123;SDS011;69433;48.642;9.142;2024-03-23T12:34:41;3.60;;;1.83;;
80123;SDS011;69433;48.642;9.142;2024-03-23T12:37:07;3.70;;;1.83;;
80123;SDS011;69433;48.642;9.142;2024-03-23T12:39:33;4.55;;;1.90;;
80123;SDS011;69433;48.642;9.142;2024-03-23T12:42:00;4.97;;;1.90;;
80123;SDS011;69433;48.642;9.142;2024-03-23T12:44:25;4.00;;;1.70;;
80123;SDS011;69433;48.642;9.142;2024-03-23T12:46:50;3.55;;;1.65;;
80123;SDS011;69433;48.642;9.142;2024-03-23T12:49:16;4.93;;;1.88;;
80123;SDS011;69433;48.642;9.142;2024-03-23T12:51:46;3.03;;;1.52;;
80123;SDS011;69433;48.642;9.142;2024-03-23T12:54:19;3.38;;;1.73;;
80123;SDS011;69433;48.642;9.142;2024-03-23T12:56:45;3.03;;;1.75;;
80123;SDS011;69433;48.642;9.142;2024-03-23T12:59:10;4.18;;;2.15;;
80123;SDS011;69433;48.642;9.142;2024-03-23T13:01:36;2.80;;;1.52;;
80123;SDS011;69433;48.642;9.142;2024-03-23T13:04:01;3.15;;;1.75;;
80123;SDS011;69433;48.642;9.142;2024-03-23T13:06:29;3.33;;;1.67;;
80123;SDS011;69433;48.642;9.142;2024-03-23T13:08:59;4.35;;;2.25;;
80123;SDS011;69433;48.642;9.142;2024-03-23T13:11:25;2.03;;;1.38;;
80123;SDS011;69433;48.642;9.142;2024-03-23T13:13:53;3.72;;;1.92;;
80123;SDS011;69433;48.642;9.142;2024-03-23T13:16:18;3.88;;;1.70;;
80123;SDS011;69433;48.642;9.142;2024-03-23T13:18:44;2.78;;;1.38;;
80123;SDS011;69433;48.642;9.142;2024-03-23T13:21:09;4.30;;;1.65;;
80123;SDS011;69433;48.642;9.142;2024-03-23T13:23:34;3.92;;;1.67;;
80123;SDS011;69433;48.642;9.142;2024-03-23T13:26:00;4.43;;;1.63;;
80123;SDS011;69433;48.642;9.142;2024-03-23T13:28:26;2.42;;;1.58;;
80123;SDS011;69433;48.642;9.142;2024-03-23T13:30:54;2.60;;;1.60;;
80123;SDS011;69433;48.642;9.142;2024-03-23T13:33:21;3.80;;;1.80;;
80123;SDS011;69433;48.642;9.142;2024-03-23T13:35:54;3.33;;;1.60;;
80123;SDS011;69433;48.642;9.142;2024-03-23T13:38:22;4.57;;;1.75;;
80123;SDS011;69433;48.642;9.142;2024-03-23T13:43:19;4.03;;;1.73;;
80123;SDS011;69433;48.642;9.142;2024-03-23T13:45:46;3.60;;;1.70;;
80123;SDS011;69433;48.642;9.142;2024-03-23T13:48:13;3.03;;;1.60;;
80123;SDS011;69433;48.642;9.142;2024-03-23T13:50:38;4.00;;;1.48;;
80123;SDS011;69433;48.642;9.142;2024-03-23T13:53:05;4.28;;;1.88;;
80123;SDS011;69433;48.642;9.142;2024-03-23T13:55:31;5.25;;;1.67;;
80123;SDS011;69433;48.642;9.142;2024-03-23T13:57:56;4.30;;;1.60;;
80123;SDS011;69433;48.642;9.142;2024-03-23T14:00:22;3.65;;;1.77;;
80123;SDS011;69433;48.642;9.142;2024-03-23T14:02:48;2.92;;;1.40;;
80123;SDS011;69433;48.642;9.142;2024-03-23T14:05:13;2.67;;;1.55;;
80123;SDS011;69433;48.642;9.142;2024-03-23T14:07:39;2.92;;;1.77;;
80123;SDS011;69433;48.642;9.142;2024-03-23T14:10:04;3.03;;;1.58;;
80123;SDS011;69433;48.642;9.142;2024-03-23T14:12:31;3.28;;;1.90;;
80123;SDS011;69433;48.642;9.142;2024-03-23T14:14:57;3.42;;;1.58;;
80123;SDS011;69433;48.642;9.142;2024-03-23T14:17:22;4.90;;;2.30;;
80123;SDS011;69433;48.642;9.142;2024-03-23T14:19:47;9.20;;;2.85;;
80123;SDS011;69433;48.642;9.142;2024-03-23T14:22:12;22.40;;;7.82;;
80123;SDS011;69433;48.642;9.142;2024-03-23T14:24:38;150.98;;;49.08;;
80123;SDS011;69433;48.642;9.142;2024-03-23T14:27:03;100.05;;;34.08;;
80123;SDS011;69433;48.642;9.142;2024-03-23T14:29:30;82.57;;;27.77;;
80123;SDS011;69433;48.642;9.142;2024-03-23T14:31:56;60.15;;;21.85;;
80123;SDS011;69433;48.642;9.142;2024-03-23T14:34:28;59.80;;;19.42;;
80123;SDS011;69433;48.642;9.142;2024-03-23T14:36:53;43.33;;;16.17;;
80123;SDS011;69433;48.642;9.142;2024-03-23T14:39:22;45.80;;;16.92;;
80123;SDS011;69433;48.642;9.142;2024-03-23T14:41:50;38.00;;;13.32;;
80123;SDS011;69433;48.642;9.142;2024-03-23T14:44:16;38.95;;;13.10;;
80123;SDS011;69433;48.642;9.142;2024-03-23T14:46:43;40.38;;;14.15;;
80123;SDS011;69433;48.642;9.142;2024-03-23T14:49:09;37.80;;;12.63;;
80123;SDS011;69433;48.642;9.142;2024-03-23T14:51:34;30.48;;;10.63;;
80123;SDS011;69433;48.642;9.142;2024-03-23T14:54:00;28.70;;;10.40;;
80123;SDS011;69433;48.642;9.142;2024-03-23T14:56:26;20.77;;;7.70;;
80123;SDS011;69433;48.642;9.142;2024-03-23T14:58:54;17.35;;;6.70;;
80123;SDS011;69433;48.642;9.142;2024-03-23T15:01:21;15.07;;;5.93;;
80123;SDS011;69433;48.642;9.142;2024-03-23T15:03:46;17.27;;;5.15;;
80123;SDS011;69433;48.642;9.142;2024-03-23T15:06:12;13.82;;;4.40;;
80123;SDS011;69433;48.642;9.142;2024-03-23T15:08:38;10.38;;;3.70;;
80123;SDS011;69433;48.642;9.142;2024-03-23T15:11:05;8.73;;;3.75;;
80123;SDS011;69433;48.642;9.142;2024-03-23T15:13:38;12.27;;;3.20;;
80123;SDS011;69433;48.642;9.142;2024-03-23T15:16:04;10.57;;;3.20;;
80123;SDS011;69433;48.642;9.142;2024-03-23T15:18:30;9.82;;;3.47;;
80123;SDS011;69433;48.642;9.142;2024-03-23T15:20:59;10.73;;;2.85;;
80123;SDS011;69433;48.642;9.142;2024-03-23T15:23:32;7.93;;;2.88;;
80123;SDS011;69433;48.642;9.142;2024-03-23T15:26:05;10.50;;;2.90;;
80123;SDS011;69433;48.642;9.142;2024-03-23T15:28:31;10.60;;;3.08;;
80123;SDS011;69433;48.642;9.142;2024-03-23T15:31:28;6.22;;;2.70;;
80123;SDS011;69433;48.642;9.142;2024-03-23T15:33:54;7.07;;;2.42;;
80123;SDS011;69433;48.642;9.142;2024-03-23T15:36:20;9.82;;;2.70;;
80123;SDS011;69433;48.642;9.142;2024-03-23T15:38:45;5.57;;;2.30;;
80123;SDS011;69433;48.642;9.142;2024-03-23T15:41:10;7.00;;;2.55;;
80123;SDS011;69433;48.642;9.142;2024-03-23T15:43:36;4.75;;;2.20;;
80123;SDS011;69433;48.642;9.142;2024-03-23T15:46:02;4.22;;;2.05;;
80123;SDS011;69433;48.642;9.142;2024-03-23T15:48:29;4.88;;;2.30;;
80123;SDS011;69433;48.642;9.142;2024-03-23T15:51:04;5.10;;;2.03;;
80123;SDS011;69433;48.642;9.142;2024-03-23T15:53:29;5.82;;;1.90;;
80123;SDS011;69433;48.642;9.142;2024-03-23T15:55:58;5.10;;;2.20;;
80123;SDS011;69433;48.642;9.142;2024-03-23T15:58:25;4.65;;;1.73;;
80123;SDS011;69433;48.642;9.142;2024-03-23T16:03:20;4.35;;;1.98;;
80123;SDS011;69433;48.642;9.142;2024-03-23T16:05:56;5.45;;;1.77;;
80123;SDS011;69433;48.642;9.142;2024-03-23T16:08:22;5.00;;;2.45;;
80123;SDS011;69433;48.642;9.142;2024-03-23T16:10:47;5.55;;;1.75;;
80123;SDS011;69433;48.642;9.142;2024-03-23T16:13:13;4.90;;;1.70;;
80123;SDS011;69433;48.642;9.142;2024-03-23T16:15:39;5.30;;;2.20;;
80123;SDS011;69433;48.642;9.142;2024-03-23T16:18:04;4.53;;;1.85;;
80123;SDS011;69433;48.642;9.142;2024-03-23T16:20:29;6.10;;;1.95;;
80123;SDS011;69433;48.642;9.142;2024-03-23T16:22:55;5.75;;;1.80;;
80123;SDS011;69433;48.642;9.142;2024-03-23T16:25:21;5.75;;;2.25;;